sensor_id;sensor_type;location;lat;lon;timestamp;pressure;altitude;pressure_sealevel;temperature;humidity
31239;BME280;17871;31.584;74.450;2023-03-29T00:02:16;98342.94;;;22.00;85.77
31239;BME280;17871;31.584;74.450;2023-03-29T00:04:45;98339.56;;;21.98;85.80
31239;BME280;17871;31.584;74.450;2023-03-29T00:07:14;98348.34;;;21.95;85.46
31239;BME280;17871;31.584;74.450;2023-03-29T00:09:43;98348.38;;;21.94;85.08
31239;BME280;17871;31.584;74.450;2023-03-29T00:12:12;98349.44;;;21.88;84.91
31239;BME280;17871;31.584;74.450;2023-03-29T00:14:41;98350.44;;;21.86;85.01
31239;BME280;17871;31.584;74.450;2023-03-29T00:17:10;98351.41;;;21.83;85.12
31239;BME280;17871;31.584;74.450;2023-03-29T00:19:44;98357.31;;;21.87;84.67
31239;BME280;17871;31.584;74.450;2023-03-29T00:22:14;98354.03;;;21.82;84.81
31239;BME280;17871;31.584;74.450;2023-03-29T00:24:43;98360.22;;;21.79;84.36
31239;BME280;17871;31.584;74.450;2023-03-29T00:27:15;98357.66;;;21.78;84.02
31239;BME280;17871;31.584;74.450;2023-03-29T00:29:44;98353.72;;;21.67;84.88
31239;BME280;17871;31.584;74.450;2023-03-29T00:32:13;98366.72;;;21.67;84.94
31239;BME280;17871;31.584;74.450;2023-03-29T00:34:42;98360.88;;;21.62;85.37
31239;BME280;17871;31.584;74.450;2023-03-29T00:37:13;98358.91;;;21.67;84.96
31239;BME280;17871;31.584;74.450;2023-03-29T00:39:42;98361.53;;;21.67;84.95
31239;BME280;17871;31.584;74.450;2023-03-29T00:42:13;98357.25;;;21.66;85.42
31239;BME280;17871;31.584;74.450;2023-03-29T00:47:55;98352.81;;;21.68;85.01
31239;BME280;17871;31.584;74.450;2023-03-29T00:50:28;98351.19;;;21.66;85.02
31239;BME280;17871;31.584;74.450;2023-03-29T00:55:47;98355.31;;;21.71;83.80
31239;BME280;17871;31.584;74.450;2023-03-29T00:58:22;98357.16;;;21.68;83.35
31239;BME280;17871;31.584;74.450;2023-03-29T01:01:00;98349.88;;;21.78;82.25
31239;BME280;17871;31.584;74.450;2023-03-29T01:03:36;98354.53;;;21.69;82.06
31239;BME280;17871;31.584;74.450;2023-03-29T01:06:16;98357.78;;;21.74;81.84
31239;BME280;17871;31.584;74.450;2023-03-29T01:08:50;98355.88;;;21.80;81.59
31239;BME280;17871;31.584;74.450;2023-03-29T01:11:29;98364.41;;;21.83;81.17
31239;BME280;17871;31.584;74.450;2023-03-29T01:14:04;98374.97;;;21.79;80.76
31239;BME280;17871;31.584;74.450;2023-03-29T01:16:35;98374.28;;;21.73;80.38
31239;BME280;17871;31.584;74.450;2023-03-29T01:19:09;98388.22;;;21.72;80.18
31239;BME280;17871;31.584;74.450;2023-03-29T01:21:55;98391.56;;;21.76;79.87
31239;BME280;17871;31.584;74.450;2023-03-29T01:30:00;98404.91;;;21.90;78.42
31239;BME280;17871;31.584;74.450;2023-03-29T01:32:32;98410.25;;;21.86;78.50
31239;BME280;17871;31.584;74.450;2023-03-29T01:35:53;98411.66;;;21.96;79.05
31239;BME280;17871;31.584;74.450;2023-03-29T01:38:27;98423.69;;;21.98;79.12
31239;BME280;17871;31.584;74.450;2023-03-29T01:40:58;98429.00;;;21.95;78.77
31239;BME280;17871;31.584;74.450;2023-03-29T01:43:47;98431.34;;;22.03;78.92
31239;BME280;17871;31.584;74.450;2023-03-29T01:46:31;98430.13;;;22.11;79.15
31239;BME280;17871;31.584;74.450;2023-03-29T01:52:01;98436.28;;;22.09;79.04
31239;BME280;17871;31.584;74.450;2023-03-29T01:54:42;98440.25;;;22.19;78.95
31239;BME280;17871;31.584;74.450;2023-03-29T01:57:13;98437.75;;;22.16;78.72
31239;BME280;17871;31.584;74.450;2023-03-29T01:59:45;98438.16;;;22.27;78.86
31239;BME280;17871;31.584;74.450;2023-03-29T02:02:16;98433.53;;;22.35;78.82
31239;BME280;17871;31.584;74.450;2023-03-29T02:04:51;98431.31;;;22.46;78.59
31239;BME280;17871;31.584;74.450;2023-03-29T02:07:25;98434.31;;;22.37;78.16
31239;BME280;17871;31.584;74.450;2023-03-29T02:09:58;98435.94;;;22.40;77.97
31239;BME280;17871;31.584;74.450;2023-03-29T02:12:28;98446.59;;;22.55;77.69
31239;BME280;17871;31.584;74.450;2023-03-29T02:14:57;98447.22;;;22.62;77.40
31239;BME280;17871;31.584;74.450;2023-03-29T02:17:28;98451.22;;;22.70;77.36
31239;BME280;17871;31.584;74.450;2023-03-29T02:20:18;98453.25;;;22.84;77.03
31239;BME280;17871;31.584;74.450;2023-03-29T02:22:59;98457.38;;;22.90;77.03
31239;BME280;17871;31.584;74.450;2023-03-29T02:25:30;98460.88;;;22.89;77.20
31239;BME280;17871;31.584;74.450;2023-03-29T02:28:00;98470.47;;;22.88;76.67
31239;BME280;17871;31.584;74.450;2023-03-29T02:30:37;98476.28;;;22.95;77.54
31239;BME280;17871;31.584;74.450;2023-03-29T02:33:13;98476.16;;;22.98;77.45
31239;BME280;17871;31.584;74.450;2023-03-29T02:35:59;98486.06;;;23.10;77.52
31239;BME280;17871;31.584;74.450;2023-03-29T02:38:30;98482.94;;;23.22;76.73
31239;BME280;17871;31.584;74.450;2023-03-29T02:41:00;98488.81;;;23.27;76.63
31239;BME280;17871;31.584;74.450;2023-03-29T02:43:31;98490.25;;;23.34;76.38
31239;BME280;17871;31.584;74.450;2023-03-29T02:46:02;98493.13;;;23.48;75.70
31239;BME280;17871;31.584;74.450;2023-03-29T02:48:34;98501.22;;;23.62;75.10
31239;BME280;17871;31.584;74.450;2023-03-29T02:51:29;98500.59;;;23.76;73.73
31239;BME280;17871;31.584;74.450;2023-03-29T02:54:08;98506.84;;;23.92;73.07
31239;BME280;17871;31.584;74.450;2023-03-29T02:57:00;98508.59;;;24.12;72.98
31239;BME280;17871;31.584;74.450;2023-03-29T02:59:33;98511.31;;;24.09;72.52
31239;BME280;17871;31.584;74.450;2023-03-29T03:02:04;98518.88;;;24.15;71.50
31239;BME280;17871;31.584;74.450;2023-03-29T03:04:35;98517.41;;;24.28;71.49
31239;BME280;17871;31.584;74.450;2023-03-29T03:07:04;98521.28;;;24.38;72.77
31239;BME280;17871;31.584;74.450;2023-03-29T03:09:33;98522.41;;;24.51;72.97
31239;BME280;17871;31.584;74.450;2023-03-29T03:12:02;98523.88;;;24.57;70.81
31239;BME280;17871;31.584;74.450;2023-03-29T03:14:31;98532.06;;;24.68;70.78
31239;BME280;17871;31.584;74.450;2023-03-29T03:17:01;98530.66;;;24.79;71.25
31239;BME280;17871;31.584;74.450;2023-03-29T03:19:32;98532.84;;;24.89;72.28
31239;BME280;17871;31.584;74.450;2023-03-29T03:22:01;98534.25;;;24.96;71.38
31239;BME280;17871;31.584;74.450;2023-03-29T03:24:30;98533.00;;;25.03;70.49
31239;BME280;17871;31.584;74.450;2023-03-29T03:27:03;98532.44;;;25.15;69.16
31239;BME280;17871;31.584;74.450;2023-03-29T03:29:32;98538.91;;;25.25;68.70
31239;BME280;17871;31.584;74.450;2023-03-29T03:32:16;98544.50;;;25.35;69.00
31239;BME280;17871;31.584;74.450;2023-03-29T03:35:04;98544.13;;;25.42;69.60
31239;BME280;17871;31.584;74.450;2023-03-29T03:37:34;98540.56;;;25.43;69.33
31239;BME280;17871;31.584;74.450;2023-03-29T03:40:07;98538.13;;;25.74;68.50
31239;BME280;17871;31.584;74.450;2023-03-29T03:42:41;98537.59;;;25.68;66.74
31239;BME280;17871;31.584;74.450;2023-03-29T03:45:10;98544.44;;;25.70;66.43
31239;BME280;17871;31.584;74.450;2023-03-29T03:47:51;98560.13;;;25.88;65.51
31239;BME280;17871;31.584;74.450;2023-03-29T03:50:34;98554.41;;;25.97;64.61
31239;BME280;17871;31.584;74.450;2023-03-29T03:53:04;98554.09;;;26.03;64.38
31239;BME280;17871;31.584;74.450;2023-03-29T03:55:53;98557.63;;;26.19;64.06
31239;BME280;17871;31.584;74.450;2023-03-29T03:58:27;98563.31;;;26.27;63.59
31239;BME280;17871;31.584;74.450;2023-03-29T04:00:57;98559.09;;;26.40;63.05
31239;BME280;17871;31.584;74.450;2023-03-29T04:03:37;98565.69;;;26.47;62.77
31239;BME280;17871;31.584;74.450;2023-03-29T04:06:10;98554.72;;;26.56;62.05
31239;BME280;17871;31.584;74.450;2023-03-29T04:09:08;98564.69;;;26.81;61.77
31239;BME280;17871;31.584;74.450;2023-03-29T04:11:42;98552.88;;;26.90;61.54
31239;BME280;17871;31.584;74.450;2023-03-29T04:14:12;98560.72;;;27.05;61.77
31239;BME280;17871;31.584;74.450;2023-03-29T04:17:08;98560.03;;;27.02;61.28
31239;BME280;17871;31.584;74.450;2023-03-29T04:19:54;98565.38;;;27.00;60.79
31239;BME280;17871;31.584;74.450;2023-03-29T04:22:28;98567.06;;;26.86;60.58
31239;BME280;17871;31.584;74.450;2023-03-29T04:24:58;98569.06;;;27.12;59.36
31239;BME280;17871;31.584;74.450;2023-03-29T04:27:48;98570.38;;;27.34;59.88
31239;BME280;17871;31.584;74.450;2023-03-29T04:30:39;98570.88;;;27.41;57.98
31239;BME280;17871;31.584;74.450;2023-03-29T04:33:19;98577.72;;;27.59;56.58
31239;BME280;17871;31.584;74.450;2023-03-29T04:35:57;98580.59;;;27.55;55.28
31239;BME280;17871;31.584;74.450;2023-03-29T04:38:27;98579.78;;;27.68;55.03
31239;BME280;17871;31.584;74.450;2023-03-29T04:40:56;98579.97;;;27.79;55.63
31239;BME280;17871;31.584;74.450;2023-03-29T04:43:53;98581.91;;;27.92;55.84
31239;BME280;17871;31.584;74.450;2023-03-29T04:46:25;98583.41;;;27.96;54.72
31239;BME280;17871;31.584;74.450;2023-03-29T04:49:06;98583.22;;;27.99;53.79
31239;BME280;17871;31.584;74.450;2023-03-29T04:51:41;98588.03;;;28.06;55.16
31239;BME280;17871;31.584;74.450;2023-03-29T04:54:11;98588.03;;;28.20;54.28
31239;BME280;17871;31.584;74.450;2023-03-29T04:56:58;98580.34;;;28.31;54.05
31239;BME280;17871;31.584;74.450;2023-03-29T04:59:45;98580.72;;;28.25;54.41
31239;BME280;17871;31.584;74.450;2023-03-29T05:02:42;98575.00;;;28.19;53.81
31239;BME280;17871;31.584;74.450;2023-03-29T05:05:12;98578.09;;;28.25;52.69
31239;BME280;17871;31.584;74.450;2023-03-29T05:07:44;98588.22;;;28.46;53.30
31239;BME280;17871;31.584;74.450;2023-03-29T05:10:15;98583.13;;;28.43;52.58
31239;BME280;17871;31.584;74.450;2023-03-29T05:12:44;98577.59;;;28.61;53.37
31239;BME280;17871;31.584;74.450;2023-03-29T05:15:14;98583.00;;;28.87;54.05
31239;BME280;17871;31.584;74.450;2023-03-29T05:17:43;98579.84;;;28.53;50.83
31239;BME280;17871;31.584;74.450;2023-03-29T05:20:13;98578.34;;;28.63;50.77
31239;BME280;17871;31.584;74.450;2023-03-29T05:22:45;98578.75;;;28.71;50.64
31239;BME280;17871;31.584;74.450;2023-03-29T05:25:36;98576.00;;;28.73;49.98
31239;BME280;17871;31.584;74.450;2023-03-29T05:28:05;98571.59;;;28.73;48.99
31239;BME280;17871;31.584;74.450;2023-03-29T05:30:34;98569.00;;;28.86;49.70
31239;BME280;17871;31.584;74.450;2023-03-29T05:33:16;98570.66;;;29.01;49.79
31239;BME280;17871;31.584;74.450;2023-03-29T05:35:45;98568.56;;;28.79;50.10
31239;BME280;17871;31.584;74.450;2023-03-29T05:38:15;98576.50;;;28.92;49.69
31239;BME280;17871;31.584;74.450;2023-03-29T05:40:44;98570.78;;;29.26;49.21
31239;BME280;17871;31.584;74.450;2023-03-29T05:43:32;98562.25;;;29.35;50.11
31239;BME280;17871;31.584;74.450;2023-03-29T05:46:02;98561.97;;;29.40;48.88
31239;BME280;17871;31.584;74.450;2023-03-29T05:48:31;98566.81;;;29.46;47.42
31239;BME280;17871;31.584;74.450;2023-03-29T05:51:01;98567.44;;;29.37;46.44
31239;BME280;17871;31.584;74.450;2023-03-29T05:53:30;98564.34;;;29.70;46.94
31239;BME280;17871;31.584;74.450;2023-03-29T05:56:01;98565.56;;;29.64;46.26
31239;BME280;17871;31.584;74.450;2023-03-29T05:58:31;98558.00;;;29.72;47.05
31239;BME280;17871;31.584;74.450;2023-03-29T06:01:00;98564.75;;;29.76;46.62
31239;BME280;17871;31.584;74.450;2023-03-29T06:03:51;98549.38;;;30.21;48.74
31239;BME280;17871;31.584;74.450;2023-03-29T06:06:26;98556.66;;;30.05;48.33
31239;BME280;17871;31.584;74.450;2023-03-29T06:08:56;98563.09;;;30.26;47.65
31239;BME280;17871;31.584;74.450;2023-03-29T06:11:31;98570.56;;;30.32;44.31
31239;BME280;17871;31.584;74.450;2023-03-29T06:14:20;98571.78;;;30.64;45.58
31239;BME280;17871;31.584;74.450;2023-03-29T06:17:01;98580.13;;;30.71;43.42
31239;BME280;17871;31.584;74.450;2023-03-29T06:19:30;98576.09;;;30.78;43.51
31239;BME280;17871;31.584;74.450;2023-03-29T06:22:00;98578.03;;;30.63;43.54
31239;BME280;17871;31.584;74.450;2023-03-29T06:24:32;98578.31;;;30.10;44.02
31239;BME280;17871;31.584;74.450;2023-03-29T06:27:08;98583.34;;;30.25;43.51
31239;BME280;17871;31.584;74.450;2023-03-29T06:29:38;98578.31;;;30.10;44.21
31239;BME280;17871;31.584;74.450;2023-03-29T06:32:06;98568.16;;;29.91;43.40
31239;BME280;17871;31.584;74.450;2023-03-29T06:34:48;98574.28;;;29.92;42.96
31239;BME280;17871;31.584;74.450;2023-03-29T06:37:48;98568.78;;;29.95;43.63
31239;BME280;17871;31.584;74.450;2023-03-29T06:40:27;98563.50;;;30.32;43.89
31239;BME280;17871;31.584;74.450;2023-03-29T06:42:57;98557.22;;;30.71;43.35
31239;BME280;17871;31.584;74.450;2023-03-29T06:45:48;98550.41;;;31.16;43.98
31239;BME280;17871;31.584;74.450;2023-03-29T06:48:25;98551.66;;;30.87;41.72
31239;BME280;17871;31.584;74.450;2023-03-29T06:50:54;98544.47;;;31.02;42.33
31239;BME280;17871;31.584;74.450;2023-03-29T06:53:30;98538.97;;;30.68;40.92
31239;BME280;17871;31.584;74.450;2023-03-29T06:56:01;98543.84;;;30.62;41.42
31239;BME280;17871;31.584;74.450;2023-03-29T06:58:41;98539.41;;;30.62;43.16
31239;BME280;17871;31.584;74.450;2023-03-29T07:01:45;98537.94;;;30.58;44.85
31239;BME280;17871;31.584;74.450;2023-03-29T07:04:34;98535.94;;;30.98;42.97
31239;BME280;17871;31.584;74.450;2023-03-29T07:07:12;98536.09;;;31.08;43.91
31239;BME280;17871;31.584;74.450;2023-03-29T07:09:57;98538.16;;;30.55;42.75
31239;BME280;17871;31.584;74.450;2023-03-29T07:12:48;98543.44;;;30.55;42.84
31239;BME280;17871;31.584;74.450;2023-03-29T07:15:19;98542.41;;;30.45;43.22
31239;BME280;17871;31.584;74.450;2023-03-29T07:18:08;98528.53;;;30.91;43.39
31239;BME280;17871;31.584;74.450;2023-03-29T07:20:38;98531.53;;;31.10;43.90
31239;BME280;17871;31.584;74.450;2023-03-29T07:23:09;98521.94;;;31.09;43.95
31239;BME280;17871;31.584;74.450;2023-03-29T07:25:38;98519.00;;;30.41;43.69
31239;BME280;17871;31.584;74.450;2023-03-29T07:28:08;98507.78;;;30.37;44.11
31239;BME280;17871;31.584;74.450;2023-03-29T07:30:38;98509.41;;;30.63;44.07
31239;BME280;17871;31.584;74.450;2023-03-29T07:33:14;98498.88;;;30.63;44.16
31239;BME280;17871;31.584;74.450;2023-03-29T07:35:50;98496.06;;;30.77;45.98
31239;BME280;17871;31.584;74.450;2023-03-29T07:38:21;98497.06;;;30.87;46.10
31239;BME280;17871;31.584;74.450;2023-03-29T07:41:03;98483.78;;;30.65;44.67
31239;BME280;17871;31.584;74.450;2023-03-29T07:43:50;98478.00;;;31.08;45.86
31239;BME280;17871;31.584;74.450;2023-03-29T07:46:23;98472.09;;;31.04;45.34
31239;BME280;17871;31.584;74.450;2023-03-29T07:48:53;98478.28;;;31.27;44.85
31239;BME280;17871;31.584;74.450;2023-03-29T07:51:24;98472.56;;;30.98;45.94
31239;BME280;17871;31.584;74.450;2023-03-29T07:54:02;98475.09;;;31.46;45.45
31239;BME280;17871;31.584;74.450;2023-03-29T07:56:39;98469.41;;;31.74;45.53
31239;BME280;17871;31.584;74.450;2023-03-29T07:59:22;98470.09;;;31.19;46.00
31239;BME280;17871;31.584;74.450;2023-03-29T08:02:03;98457.72;;;31.65;44.85
31239;BME280;17871;31.584;74.450;2023-03-29T08:04:38;98457.19;;;31.49;45.04
31239;BME280;17871;31.584;74.450;2023-03-29T08:07:17;98449.09;;;31.63;44.77
31239;BME280;17871;31.584;74.450;2023-03-29T08:10:08;98443.53;;;31.55;43.55
31239;BME280;17871;31.584;74.450;2023-03-29T08:13:03;98438.03;;;31.69;44.32
31239;BME280;17871;31.584;74.450;2023-03-29T08:16:00;98438.72;;;31.38;43.84
31239;BME280;17871;31.584;74.450;2023-03-29T08:18:34;98437.81;;;31.26;43.65
31239;BME280;17871;31.584;74.450;2023-03-29T08:21:04;98444.00;;;31.38;43.20
31239;BME280;17871;31.584;74.450;2023-03-29T08:23:33;98439.00;;;31.79;43.64
31239;BME280;17871;31.584;74.450;2023-03-29T08:26:25;98431.69;;;31.15;43.68
31239;BME280;17871;31.584;74.450;2023-03-29T08:28:57;98431.06;;;31.68;43.92
31239;BME280;17871;31.584;74.450;2023-03-29T08:31:27;98426.72;;;31.78;45.15
31239;BME280;17871;31.584;74.450;2023-03-29T08:33:56;98429.41;;;31.67;43.67
31239;BME280;17871;31.584;74.450;2023-03-29T08:36:44;98414.59;;;31.54;44.08
31239;BME280;17871;31.584;74.450;2023-03-29T08:39:23;98406.81;;;31.63;43.21
31239;BME280;17871;31.584;74.450;2023-03-29T08:45:31;98415.91;;;31.93;41.02
31239;BME280;17871;31.584;74.450;2023-03-29T08:48:15;98415.44;;;31.65;39.33
31239;BME280;17871;31.584;74.450;2023-03-29T08:50:52;98405.84;;;31.64;40.26
31239;BME280;17871;31.584;74.450;2023-03-29T08:56:11;98401.34;;;31.98;41.19
31239;BME280;17871;31.584;74.450;2023-03-29T08:59:00;98392.13;;;31.48;39.97
31239;BME280;17871;31.584;74.450;2023-03-29T09:01:33;98399.69;;;31.75;40.17
31239;BME280;17871;31.584;74.450;2023-03-29T09:04:08;98394.91;;;31.91;39.73
31239;BME280;17871;31.584;74.450;2023-03-29T09:06:58;98392.16;;;31.70;38.87
31239;BME280;17871;31.584;74.450;2023-03-29T09:09:34;98384.09;;;31.83;40.21
31239;BME280;17871;31.584;74.450;2023-03-29T09:20:49;98369.66;;;32.09;33.23
31239;BME280;17871;31.584;74.450;2023-03-29T09:23:41;98367.44;;;32.25;34.75
31239;BME280;17871;31.584;74.450;2023-03-29T09:26:40;98363.31;;;31.56;36.57
31239;BME280;17871;31.584;74.450;2023-03-29T09:30:49;98353.91;;;32.08;36.33
31239;BME280;17871;31.584;74.450;2023-03-29T09:38:47;98353.00;;;31.53;36.73
31239;BME280;17871;31.584;74.450;2023-03-29T09:44:11;98345.06;;;31.64;33.45
31239;BME280;17871;31.584;74.450;2023-03-29T09:47:08;98337.13;;;31.64;37.70
31239;BME280;17871;31.584;74.450;2023-03-29T09:49:46;98340.72;;;31.52;41.48
31239;BME280;17871;31.584;74.450;2023-03-29T09:52:18;98328.94;;;31.34;42.40
31239;BME280;17871;31.584;74.450;2023-03-29T09:55:00;98327.25;;;31.33;42.87
31239;BME280;17871;31.584;74.450;2023-03-29T09:58:17;98328.81;;;31.35;42.84
31239;BME280;17871;31.584;74.450;2023-03-29T10:00:50;98321.75;;;31.25;44.57
31239;BME280;17871;31.584;74.450;2023-03-29T10:03:27;98321.47;;;31.06;43.44
31239;BME280;17871;31.584;74.450;2023-03-29T10:06:16;98315.75;;;31.12;43.88
31239;BME280;17871;31.584;74.450;2023-03-29T10:08:56;98311.41;;;31.00;44.27
31239;BME280;17871;31.584;74.450;2023-03-29T10:11:38;98307.31;;;31.29;44.53
31239;BME280;17871;31.584;74.450;2023-03-29T10:14:35;98310.72;;;31.09;43.83
31239;BME280;17871;31.584;74.450;2023-03-29T10:17:17;98310.88;;;30.95;44.99
31239;BME280;17871;31.584;74.450;2023-03-29T10:19:58;98311.28;;;30.66;43.91
31239;BME280;17871;31.584;74.450;2023-03-29T10:22:33;98310.81;;;30.61;44.65
31239;BME280;17871;31.584;74.450;2023-03-29T10:25:12;98314.06;;;30.65;44.60
31239;BME280;17871;31.584;74.450;2023-03-29T10:27:43;98310.81;;;30.61;44.58
31239;BME280;17871;31.584;74.450;2023-03-29T10:30:22;98314.06;;;30.65;45.03
31239;BME280;17871;31.584;74.450;2023-03-29T10:32:55;98307.44;;;30.48;44.80
31239;BME280;17871;31.584;74.450;2023-03-29T10:35:38;98314.22;;;30.16;44.90
31239;BME280;17871;31.584;74.450;2023-03-29T10:38:17;98305.44;;;30.39;45.36
31239;BME280;17871;31.584;74.450;2023-03-29T10:40:54;98309.97;;;30.61;45.87
31239;BME280;17871;31.584;74.450;2023-03-29T10:46:10;98305.66;;;30.60;45.76
31239;BME280;17871;31.584;74.450;2023-03-29T10:48:46;98306.97;;;30.30;45.97
31239;BME280;17871;31.584;74.450;2023-03-29T10:51:17;98305.06;;;30.32;46.60
31239;BME280;17871;31.584;74.450;2023-03-29T10:53:47;98298.88;;;30.10;48.33
31239;BME280;17871;31.584;74.450;2023-03-29T10:56:41;98308.81;;;29.94;48.75
31239;BME280;17871;31.584;74.450;2023-03-29T10:59:33;98298.44;;;30.27;48.92
31239;BME280;17871;31.584;74.450;2023-03-29T11:04:50;98294.63;;;30.07;49.39
31239;BME280;17871;31.584;74.450;2023-03-29T11:16:11;98290.88;;;29.99;47.44
31239;BME280;17871;31.584;74.450;2023-03-29T11:27:29;98284.69;;;30.11;46.34
31239;BME280;17871;31.584;74.450;2023-03-29T11:32:47;98289.41;;;29.95;46.75
31239;BME280;17871;31.584;74.450;2023-03-29T11:35:23;98288.47;;;29.96;46.62
31239;BME280;17871;31.584;74.450;2023-03-29T11:40:51;98304.78;;;30.01;48.50
31239;BME280;17871;31.584;74.450;2023-03-29T11:43:29;98308.56;;;30.09;49.26
31239;BME280;17871;31.584;74.450;2023-03-29T11:52:14;98302.22;;;30.12;47.57
31239;BME280;17871;31.584;74.450;2023-03-29T11:54:50;98297.44;;;30.17;47.64
31239;BME280;17871;31.584;74.450;2023-03-29T11:57:33;98304.41;;;29.81;47.84
31239;BME280;17871;31.584;74.450;2023-03-29T12:00:22;98297.63;;;30.03;48.57
31239;BME280;17871;31.584;74.450;2023-03-29T12:05:48;98299.13;;;30.18;48.08
31239;BME280;17871;31.584;74.450;2023-03-29T12:08:28;98304.13;;;30.10;47.68
31239;BME280;17871;31.584;74.450;2023-03-29T12:11:06;98310.44;;;30.07;48.24
31239;BME280;17871;31.584;74.450;2023-03-29T12:13:49;98315.50;;;29.87;46.47
31239;BME280;17871;31.584;74.450;2023-03-29T12:16:31;98324.25;;;29.74;43.56
31239;BME280;17871;31.584;74.450;2023-03-29T12:21:56;98338.63;;;29.45;43.32
31239;BME280;17871;31.584;74.450;2023-03-29T12:24:30;98336.16;;;29.80;43.77
31239;BME280;17871;31.584;74.450;2023-03-29T12:38:28;98332.97;;;29.39;44.24
31239;BME280;17871;31.584;74.450;2023-03-29T12:41:20;98344.44;;;29.38;44.33
31239;BME280;17871;31.584;74.450;2023-03-29T12:44:14;98355.41;;;29.31;44.77
31239;BME280;17871;31.584;74.450;2023-03-29T12:46:53;98358.38;;;29.27;44.97
31239;BME280;17871;31.584;74.450;2023-03-29T12:51:56;98365.81;;;29.08;45.59
31239;BME280;17871;31.584;74.450;2023-03-29T12:54:30;98378.00;;;29.09;45.00
31239;BME280;17871;31.584;74.450;2023-03-29T12:57:25;98380.97;;;29.04;45.96
31239;BME280;17871;31.584;74.450;2023-03-29T12:59:55;98377.78;;;28.87;47.02
31239;BME280;17871;31.584;74.450;2023-03-29T13:02:36;98381.78;;;28.79;46.91
31239;BME280;17871;31.584;74.450;2023-03-29T13:05:31;98380.72;;;28.82;47.12
31239;BME280;17871;31.584;74.450;2023-03-29T13:08:21;98375.03;;;28.75;47.47
31239;BME280;17871;31.584;74.450;2023-03-29T13:10:55;98382.78;;;28.64;47.39
31239;BME280;17871;31.584;74.450;2023-03-29T13:13:28;98373.91;;;28.65;47.54
31239;BME280;17871;31.584;74.450;2023-03-29T13:16:15;98378.06;;;28.69;46.76
31239;BME280;17871;31.584;74.450;2023-03-29T13:19:15;98380.06;;;28.78;47.19
31239;BME280;17871;31.584;74.450;2023-03-29T13:28:12;98391.59;;;28.63;47.76
31239;BME280;17871;31.584;74.450;2023-03-29T13:30:58;98396.31;;;28.58;48.04
31239;BME280;17871;31.584;74.450;2023-03-29T13:38:49;98377.66;;;28.49;49.82
31239;BME280;17871;31.584;74.450;2023-03-29T13:41:44;98375.44;;;28.43;50.32
31239;BME280;17871;31.584;74.450;2023-03-29T13:44:27;98368.59;;;28.40;49.75
31239;BME280;17871;31.584;74.450;2023-03-29T13:47:35;98356.25;;;28.28;50.26
31239;BME280;17871;31.584;74.450;2023-03-29T13:50:14;98350.00;;;28.16;50.43
31239;BME280;17871;31.584;74.450;2023-03-29T13:52:57;98356.75;;;28.20;51.31
31239;BME280;17871;31.584;74.450;2023-03-29T13:55:30;98360.22;;;28.21;51.17
31239;BME280;17871;31.584;74.450;2023-03-29T13:58:12;98348.78;;;28.22;51.25
31239;BME280;17871;31.584;74.450;2023-03-29T14:00:51;98345.59;;;28.17;51.42
31239;BME280;17871;31.584;74.450;2023-03-29T14:03:23;98336.03;;;28.02;51.94
31239;BME280;17871;31.584;74.450;2023-03-29T14:05:59;98334.84;;;28.07;52.06
31239;BME280;17871;31.584;74.450;2023-03-29T14:08:31;98330.28;;;27.82;52.28
31239;BME280;17871;31.584;74.450;2023-03-29T14:11:04;98329.31;;;27.83;52.92
31239;BME280;17871;31.584;74.450;2023-03-29T14:13:35;98328.72;;;27.66;55.13
31239;BME280;17871;31.584;74.450;2023-03-29T14:16:07;98328.13;;;27.75;56.56
31239;BME280;17871;31.584;74.450;2023-03-29T14:18:41;98319.59;;;27.71;58.03
31239;BME280;17871;31.584;74.450;2023-03-29T14:21:13;98322.06;;;27.60;59.49
31239;BME280;17871;31.584;74.450;2023-03-29T14:23:45;98326.19;;;27.64;60.63
31239;BME280;17871;31.584;74.450;2023-03-29T14:26:17;98324.13;;;27.41;62.32
31239;BME280;17871;31.584;74.450;2023-03-29T14:28:49;98326.28;;;27.34;63.16
31239;BME280;17871;31.584;74.450;2023-03-29T14:31:21;98320.38;;;27.31;63.82
31239;BME280;17871;31.584;74.450;2023-03-29T14:33:56;98321.03;;;27.20;65.05
31239;BME280;17871;31.584;74.450;2023-03-29T14:36:26;98326.66;;;27.00;65.31
31239;BME280;17871;31.584;74.450;2023-03-29T14:41:32;98329.94;;;26.90;66.31
31239;BME280;17871;31.584;74.450;2023-03-29T14:44:06;98335.00;;;26.93;66.63
31239;BME280;17871;31.584;74.450;2023-03-29T14:46:38;98328.91;;;26.62;66.89
31239;BME280;17871;31.584;74.450;2023-03-29T14:49:11;98329.50;;;26.67;66.86
31239;BME280;17871;31.584;74.450;2023-03-29T14:51:46;98331.81;;;26.72;66.55
31239;BME280;17871;31.584;74.450;2023-03-29T14:54:27;98331.34;;;26.65;66.85
31239;BME280;17871;31.584;74.450;2023-03-29T14:57:01;98333.59;;;26.71;66.39
31239;BME280;17871;31.584;74.450;2023-03-29T14:59:34;98336.22;;;26.42;66.48
31239;BME280;17871;31.584;74.450;2023-03-29T15:02:25;98336.88;;;26.61;65.79
31239;BME280;17871;31.584;74.450;2023-03-29T15:05:05;98345.53;;;26.47;66.54
31239;BME280;17871;31.584;74.450;2023-03-29T15:07:35;98336.16;;;26.43;66.81
31239;BME280;17871;31.584;74.450;2023-03-29T15:10:05;98335.34;;;26.27;67.37
31239;BME280;17871;31.584;74.450;2023-03-29T15:12:35;98339.50;;;26.31;67.35
31239;BME280;17871;31.584;74.450;2023-03-29T15:15:08;98340.97;;;26.35;67.31
31239;BME280;17871;31.584;74.450;2023-03-29T15:17:41;98336.88;;;26.31;67.83
31239;BME280;17871;31.584;74.450;2023-03-29T15:20:26;98342.72;;;26.20;68.42
31239;BME280;17871;31.584;74.450;2023-03-29T15:23:03;98334.75;;;26.22;67.91
31239;BME280;17871;31.584;74.450;2023-03-29T15:25:38;98335.78;;;26.19;67.68
31239;BME280;17871;31.584;74.450;2023-03-29T15:28:28;98340.94;;;26.21;67.37
31239;BME280;17871;31.584;74.450;2023-03-29T15:31:08;98341.41;;;26.12;67.79